sensor_id;sensor_type;location;lat;lon;timestamp;temperature;humidity
20174;DHT22;10246;50.620;7.232;2023-03-23T00:00:06;15.10;1.00
20174;DHT22;10246;50.620;7.232;2023-03-23T00:02:33;15.10;1.00
20174;DHT22;10246;50.620;7.232;2023-03-23T00:05:05;15.10;1.00
20174;DHT22;10246;50.620;7.232;2023-03-23T00:07:33;15.10;1.00
20174;DHT22;10246;50.620;7.232;2023-03-23T00:10:00;15.10;1.00
20174;DHT22;10246;50.620;7.232;2023-03-23T00:12:29;15.00;1.00
20174;DHT22;10246;50.620;7.232;2023-03-23T00:14:58;15.00;1.00
20174;DHT22;10246;50.620;7.232;2023-03-23T00:17:26;15.00;1.00
20174;DHT22;10246;50.620;7.232;2023-03-23T00:19:52;15.00;1.00
20174;DHT22;10246;50.620;7.232;2023-03-23T00:22:20;15.00;1.00
20174;DHT22;10246;50.620;7.232;2023-03-23T00:24:50;14.90;1.00
20174;DHT22;10246;50.620;7.232;2023-03-23T00:27:18;14.90;1.00
20174;DHT22;10246;50.620;7.232;2023-03-23T00:29:47;14.80;1.00
20174;DHT22;10246;50.620;7.232;2023-03-23T00:32:19;14.80;1.00
20174;DHT22;10246;50.620;7.232;2023-03-23T00:34:46;14.80;1.00
20174;DHT22;10246;50.620;7.232;2023-03-23T00:37:15;14.80;1.00
20174;DHT22;10246;50.620;7.232;2023-03-23T00:39:45;14.70;1.00
20174;DHT22;10246;50.620;7.232;2023-03-23T00:42:13;14.70;1.00
20174;DHT22;10246;50.620;7.232;2023-03-23T00:44:40;14.70;1.00
20174;DHT22;10246;50.620;7.232;2023-03-23T00:47:07;14.70;1.00
20174;DHT22;10246;50.620;7.232;2023-03-23T00:49:35;14.70;1.00
20174;DHT22;10246;50.620;7.232;2023-03-23T00:52:04;14.70;1.00
20174;DHT22;10246;50.620;7.232;2023-03-23T00:54:31;14.70;1.00
20174;DHT22;10246;50.620;7.232;2023-03-23T00:57:00;14.70;1.00
20174;DHT22;10246;50.620;7.232;2023-03-23T00:59:27;14.80;1.00
20174;DHT22;10246;50.620;7.232;2023-03-23T01:01:54;14.70;1.00
20174;DHT22;10246;50.620;7.232;2023-03-23T01:04:21;14.70;1.00
20174;DHT22;10246;50.620;7.232;2023-03-23T01:06:49;14.80;1.00
20174;DHT22;10246;50.620;7.232;2023-03-23T01:09:18;14.70;1.00
20174;DHT22;10246;50.620;7.232;2023-03-23T01:11:47;14.70;1.00
20174;DHT22;10246;50.620;7.232;2023-03-23T01:14:18;14.70;1.00
20174;DHT22;10246;50.620;7.232;2023-03-23T01:16:45;14.70;1.00
20174;DHT22;10246;50.620;7.232;2023-03-23T01:19:12;14.70;1.00
20174;DHT22;10246;50.620;7.232;2023-03-23T01:21:39;14.70;1.00
20174;DHT22;10246;50.620;7.232;2023-03-23T01:24:07;14.70;1.00
20174;DHT22;10246;50.620;7.232;2023-03-23T01:26:33;14.70;1.00
20174;DHT22;10246;50.620;7.232;2023-03-23T01:29:00;14.70;1.00
20174;DHT22;10246;50.620;7.232;2023-03-23T01:31:28;14.70;1.00
20174;DHT22;10246;50.620;7.232;2023-03-23T01:33:55;14.70;1.00
20174;DHT22;10246;50.620;7.232;2023-03-23T01:36:24;14.70;1.00
20174;DHT22;10246;50.620;7.232;2023-03-23T01:38:52;14.70;1.00
20174;DHT22;10246;50.620;7.232;2023-03-23T01:41:19;14.60;1.00
20174;DHT22;10246;50.620;7.232;2023-03-23T01:44:01;14.50;1.00
20174;DHT22;10246;50.620;7.232;2023-03-23T01:46:32;14.50;1.00
20174;DHT22;10246;50.620;7.232;2023-03-23T01:49:03;14.50;1.00
20174;DHT22;10246;50.620;7.232;2023-03-23T01:51:35;14.60;1.00
20174;DHT22;10246;50.620;7.232;2023-03-23T01:54:06;14.50;1.00
20174;DHT22;10246;50.620;7.232;2023-03-23T01:56:38;14.50;1.00
20174;DHT22;10246;50.620;7.232;2023-03-23T01:59:07;14.50;1.00
20174;DHT22;10246;50.620;7.232;2023-03-23T02:01:37;14.40;1.00
20174;DHT22;10246;50.620;7.232;2023-03-23T02:04:08;14.40;1.00
20174;DHT22;10246;50.620;7.232;2023-03-23T02:06:35;14.40;1.00
20174;DHT22;10246;50.620;7.232;2023-03-23T02:09:02;14.40;1.00
20174;DHT22;10246;50.620;7.232;2023-03-23T02:11:32;14.40;1.00
20174;DHT22;10246;50.620;7.232;2023-03-23T02:13:58;14.40;1.00
20174;DHT22;10246;50.620;7.232;2023-03-23T02:16:31;14.40;1.00
20174;DHT22;10246;50.620;7.232;2023-03-23T02:19:14;14.40;1.00
20174;DHT22;10246;50.620;7.232;2023-03-23T02:22:06;14.40;1.00
20174;DHT22;10246;50.620;7.232;2023-03-23T02:27:39;14.30;1.00
20174;DHT22;10246;50.620;7.232;2023-03-23T02:30:43;14.30;1.00
20174;DHT22;10246;50.620;7.232;2023-03-23T02:33:36;14.20;1.00
20174;DHT22;10246;50.620;7.232;2023-03-23T02:36:13;14.10;1.00
20174;DHT22;10246;50.620;7.232;2023-03-23T02:38:51;14.10;1.00
20174;DHT22;10246;50.620;7.232;2023-03-23T02:41:20;14.10;1.00
20174;DHT22;10246;50.620;7.232;2023-03-23T02:43:49;14.10;1.00
20174;DHT22;10246;50.620;7.232;2023-03-23T02:46:18;14.10;1.00
20174;DHT22;10246;50.620;7.232;2023-03-23T02:48:50;14.00;1.00
20174;DHT22;10246;50.620;7.232;2023-03-23T02:51:18;14.00;1.00
20174;DHT22;10246;50.620;7.232;2023-03-23T02:53:47;14.00;1.00
20174;DHT22;10246;50.620;7.232;2023-03-23T02:56:16;13.80;1.00
20174;DHT22;10246;50.620;7.232;2023-03-23T02:58:44;13.80;1.00
20174;DHT22;10246;50.620;7.232;2023-03-23T03:04:03;13.80;1.00
20174;DHT22;10246;50.620;7.232;2023-03-23T03:06:34;13.80;1.00
20174;DHT22;10246;50.620;7.232;2023-03-23T03:09:08;13.80;1.00
20174;DHT22;10246;50.620;7.232;2023-03-23T03:11:43;13.80;1.00
20174;DHT22;10246;50.620;7.232;2023-03-23T03:14:17;13.80;1.00
20174;DHT22;10246;50.620;7.232;2023-03-23T03:16:49;13.80;1.00
20174;DHT22;10246;50.620;7.232;2023-03-23T03:19:25;13.80;1.00
20174;DHT22;10246;50.620;7.232;2023-03-23T03:21:54;13.80;1.00
20174;DHT22;10246;50.620;7.232;2023-03-23T03:24:25;13.70;1.00
20174;DHT22;10246;50.620;7.232;2023-03-23T03:26:55;13.70;1.00
20174;DHT22;10246;50.620;7.232;2023-03-23T03:29:27;13.70;1.00
20174;DHT22;10246;50.620;7.232;2023-03-23T03:31:56;13.70;1.00
20174;DHT22;10246;50.620;7.232;2023-03-23T03:34:26;13.70;1.00
20174;DHT22;10246;50.620;7.232;2023-03-23T03:36:54;13.70;1.00
20174;DHT22;10246;50.620;7.232;2023-03-23T03:39:24;13.70;1.00
20174;DHT22;10246;50.620;7.232;2023-03-23T03:41:51;13.70;1.00
20174;DHT22;10246;50.620;7.232;2023-03-23T03:44:18;13.60;1.00
20174;DHT22;10246;50.620;7.232;2023-03-23T03:46:45;13.60;1.00
20174;DHT22;10246;50.620;7.232;2023-03-23T03:49:12;13.60;1.00
20174;DHT22;10246;50.620;7.232;2023-03-23T03:51:41;13.60;1.00
20174;DHT22;10246;50.620;7.232;2023-03-23T03:54:08;13.60;1.00
20174;DHT22;10246;50.620;7.232;2023-03-23T03:56:36;13.50;1.00
20174;DHT22;10246;50.620;7.232;2023-03-23T03:59:05;13.60;1.00
20174;DHT22;10246;50.620;7.232;2023-03-23T04:01:33;13.50;1.00
20174;DHT22;10246;50.620;7.232;2023-03-23T04:04:00;13.60;1.00
20174;DHT22;10246;50.620;7.232;2023-03-23T04:06:27;13.50;1.00
20174;DHT22;10246;50.620;7.232;2023-03-23T04:08:55;13.50;1.00
20174;DHT22;10246;50.620;7.232;2023-03-23T04:11:24;13.60;1.00
20174;DHT22;10246;50.620;7.232;2023-03-23T04:13:51;13.60;1.00
20174;DHT22;10246;50.620;7.232;2023-03-23T04:16:18;13.60;1.00
20174;DHT22;10246;50.620;7.232;2023-03-23T04:18:46;13.60;1.00
20174;DHT22;10246;50.620;7.232;2023-03-23T04:21:13;13.60;1.00
20174;DHT22;10246;50.620;7.232;2023-03-23T04:23:41;13.60;1.00
20174;DHT22;10246;50.620;7.232;2023-03-23T04:26:09;13.60;1.00
20174;DHT22;10246;50.620;7.232;2023-03-23T04:28:38;13.60;1.00
20174;DHT22;10246;50.620;7.232;2023-03-23T04:31:06;13.60;1.00
20174;DHT22;10246;50.620;7.232;2023-03-23T04:33:34;13.70;1.00
20174;DHT22;10246;50.620;7.232;2023-03-23T04:36:03;13.60;1.00
20174;DHT22;10246;50.620;7.232;2023-03-23T04:38:32;13.60;1.00
20174;DHT22;10246;50.620;7.232;2023-03-23T04:41:00;13.60;1.00
20174;DHT22;10246;50.620;7.232;2023-03-23T04:43:28;13.60;1.00
20174;DHT22;10246;50.620;7.232;2023-03-23T04:45:56;13.50;1.00
20174;DHT22;10246;50.620;7.232;2023-03-23T04:48:24;13.60;1.00
20174;DHT22;10246;50.620;7.232;2023-03-23T04:50:51;13.60;1.00
20174;DHT22;10246;50.620;7.232;2023-03-23T04:53:18;13.60;1.00
20174;DHT22;10246;50.620;7.232;2023-03-23T04:55:45;13.60;1.00
20174;DHT22;10246;50.620;7.232;2023-03-23T04:58:15;13.60;1.00
20174;DHT22;10246;50.620;7.232;2023-03-23T05:00:43;13.60;1.00
20174;DHT22;10246;50.620;7.232;2023-03-23T05:03:15;13.60;1.00
20174;DHT22;10246;50.620;7.232;2023-03-23T05:05:42;13.60;1.00
20174;DHT22;10246;50.620;7.232;2023-03-23T05:08:08;13.50;1.00
20174;DHT22;10246;50.620;7.232;2023-03-23T05:10:35;13.50;1.00
20174;DHT22;10246;50.620;7.232;2023-03-23T05:13:02;13.50;1.00
20174;DHT22;10246;50.620;7.232;2023-03-23T05:15:29;13.50;1.00
20174;DHT22;10246;50.620;7.232;2023-03-23T05:17:57;13.40;1.00
20174;DHT22;10246;50.620;7.232;2023-03-23T05:20:24;13.40;1.00
20174;DHT22;10246;50.620;7.232;2023-03-23T05:22:50;13.40;1.00
20174;DHT22;10246;50.620;7.232;2023-03-23T05:25:18;13.40;1.00
20174;DHT22;10246;50.620;7.232;2023-03-23T05:27:46;13.30;1.00
20174;DHT22;10246;50.620;7.232;2023-03-23T05:30:19;13.30;1.00
20174;DHT22;10246;50.620;7.232;2023-03-23T05:32:46;13.30;1.00
20174;DHT22;10246;50.620;7.232;2023-03-23T05:35:17;13.40;1.00
20174;DHT22;10246;50.620;7.232;2023-03-23T05:37:44;13.40;1.00
20174;DHT22;10246;50.620;7.232;2023-03-23T05:40:12;13.50;1.00
20174;DHT22;10246;50.620;7.232;2023-03-23T05:42:39;13.50;1.00
20174;DHT22;10246;50.620;7.232;2023-03-23T05:45:08;13.50;1.00
20174;DHT22;10246;50.620;7.232;2023-03-23T05:47:36;13.50;1.00
20174;DHT22;10246;50.620;7.232;2023-03-23T05:50:04;13.50;1.00
20174;DHT22;10246;50.620;7.232;2023-03-23T05:52:33;13.50;1.00
20174;DHT22;10246;50.620;7.232;2023-03-23T05:55:00;13.50;1.00
20174;DHT22;10246;50.620;7.232;2023-03-23T05:57:29;13.60;1.00
20174;DHT22;10246;50.620;7.232;2023-03-23T05:59:56;13.60;1.00
20174;DHT22;10246;50.620;7.232;2023-03-23T06:02:24;13.70;1.00
20174;DHT22;10246;50.620;7.232;2023-03-23T06:04:53;13.60;1.00
20174;DHT22;10246;50.620;7.232;2023-03-23T06:07:23;13.70;1.00
20174;DHT22;10246;50.620;7.232;2023-03-23T06:09:51;13.70;1.00
20174;DHT22;10246;50.620;7.232;2023-03-23T06:12:18;13.70;1.00
20174;DHT22;10246;50.620;7.232;2023-03-23T06:14:46;13.70;1.00
20174;DHT22;10246;50.620;7.232;2023-03-23T06:17:13;13.80;1.00
20174;DHT22;10246;50.620;7.232;2023-03-23T06:19:40;13.80;1.00
20174;DHT22;10246;50.620;7.232;2023-03-23T06:22:07;13.80;1.00
20174;DHT22;10246;50.620;7.232;2023-03-23T06:24:34;13.90;1.00
20174;DHT22;10246;50.620;7.232;2023-03-23T06:27:02;13.90;1.00
20174;DHT22;10246;50.620;7.232;2023-03-23T06:29:30;13.90;1.00
20174;DHT22;10246;50.620;7.232;2023-03-23T06:32:00;13.90;1.00
20174;DHT22;10246;50.620;7.232;2023-03-23T06:34:28;13.90;1.00
20174;DHT22;10246;50.620;7.232;2023-03-23T06:36:55;13.90;1.00
20174;DHT22;10246;50.620;7.232;2023-03-23T06:39:22;13.90;1.00
20174;DHT22;10246;50.620;7.232;2023-03-23T06:41:49;13.90;1.00
20174;DHT22;10246;50.620;7.232;2023-03-23T06:44:18;13.90;1.00
20174;DHT22;10246;50.620;7.232;2023-03-23T06:46:45;14.00;1.00
20174;DHT22;10246;50.620;7.232;2023-03-23T06:49:13;14.00;1.00
20174;DHT22;10246;50.620;7.232;2023-03-23T06:51:40;14.00;1.00
20174;DHT22;10246;50.620;7.232;2023-03-23T06:54:06;14.00;1.00
20174;DHT22;10246;50.620;7.232;2023-03-23T06:56:33;14.10;1.00
20174;DHT22;10246;50.620;7.232;2023-03-23T06:59:00;14.10;1.00
20174;DHT22;10246;50.620;7.232;2023-03-23T07:01:28;14.10;1.00
20174;DHT22;10246;50.620;7.232;2023-03-23T07:03:55;14.10;1.00
20174;DHT22;10246;50.620;7.232;2023-03-23T07:06:23;14.10;1.00
20174;DHT22;10246;50.620;7.232;2023-03-23T07:08:51;14.10;1.00
20174;DHT22;10246;50.620;7.232;2023-03-23T07:11:18;14.20;1.00
20174;DHT22;10246;50.620;7.232;2023-03-23T07:13:45;14.20;1.00
20174;DHT22;10246;50.620;7.232;2023-03-23T07:16:11;14.20;1.00
20174;DHT22;10246;50.620;7.232;2023-03-23T07:18:40;14.20;1.00
20174;DHT22;10246;50.620;7.232;2023-03-23T07:21:07;14.30;1.00
20174;DHT22;10246;50.620;7.232;2023-03-23T07:23:34;14.30;1.00
20174;DHT22;10246;50.620;7.232;2023-03-23T07:26:02;14.30;1.00
20174;DHT22;10246;50.620;7.232;2023-03-23T07:28:29;14.30;1.00
20174;DHT22;10246;50.620;7.232;2023-03-23T07:30:55;14.30;1.00
20174;DHT22;10246;50.620;7.232;2023-03-23T07:33:22;14.40;1.00
20174;DHT22;10246;50.620;7.232;2023-03-23T07:35:50;14.40;1.00
20174;DHT22;10246;50.620;7.232;2023-03-23T07:38:17;14.30;1.00
20174;DHT22;10246;50.620;7.232;2023-03-23T07:40:45;14.40;1.00
20174;DHT22;10246;50.620;7.232;2023-03-23T07:43:12;14.40;1.00
20174;DHT22;10246;50.620;7.232;2023-03-23T07:45:39;14.50;1.00
20174;DHT22;10246;50.620;7.232;2023-03-23T07:48:06;14.50;1.00
20174;DHT22;10246;50.620;7.232;2023-03-23T07:50:33;14.50;1.00
20174;DHT22;10246;50.620;7.232;2023-03-23T07:53:03;14.50;1.00
20174;DHT22;10246;50.620;7.232;2023-03-23T07:55:30;14.50;1.00
20174;DHT22;10246;50.620;7.232;2023-03-23T07:57:57;14.50;1.00
20174;DHT22;10246;50.620;7.232;2023-03-23T08:00:24;14.60;1.00
20174;DHT22;10246;50.620;7.232;2023-03-23T08:02:52;14.60;1.00
20174;DHT22;10246;50.620;7.232;2023-03-23T08:05:20;14.60;1.00
20174;DHT22;10246;50.620;7.232;2023-03-23T08:07:48;14.60;1.00
20174;DHT22;10246;50.620;7.232;2023-03-23T08:10:16;14.60;1.00
20174;DHT22;10246;50.620;7.232;2023-03-23T08:12:44;14.60;1.00
20174;DHT22;10246;50.620;7.232;2023-03-23T08:15:12;14.60;1.00
20174;DHT22;10246;50.620;7.232;2023-03-23T08:17:40;14.70;1.00
20174;DHT22;10246;50.620;7.232;2023-03-23T08:20:09;14.70;1.00
20174;DHT22;10246;50.620;7.232;2023-03-23T08:22:39;14.70;1.00
20174;DHT22;10246;50.620;7.232;2023-03-23T08:25:08;14.70;1.00
20174;DHT22;10246;50.620;7.232;2023-03-23T08:27:36;14.70;1.00
20174;DHT22;10246;50.620;7.232;2023-03-23T08:30:07;14.70;1.00
20174;DHT22;10246;50.620;7.232;2023-03-23T08:32:34;14.80;1.00
20174;DHT22;10246;50.620;7.232;2023-03-23T08:35:01;14.80;1.00
20174;DHT22;10246;50.620;7.232;2023-03-23T08:37:29;14.80;1.00
20174;DHT22;10246;50.620;7.232;2023-03-23T08:39:56;14.80;1.00
20174;DHT22;10246;50.620;7.232;2023-03-23T08:42:23;14.80;1.00
20174;DHT22;10246;50.620;7.232;2023-03-23T08:44:52;14.90;1.00
20174;DHT22;10246;50.620;7.232;2023-03-23T08:47:19;14.90;1.00
20174;DHT22;10246;50.620;7.232;2023-03-23T08:49:46;14.90;1.00
20174;DHT22;10246;50.620;7.232;2023-03-23T08:52:18;14.90;1.00
20174;DHT22;10246;50.620;7.232;2023-03-23T08:54:44;14.90;1.00
20174;DHT22;10246;50.620;7.232;2023-03-23T08:57:13;14.90;1.00
20174;DHT22;10246;50.620;7.232;2023-03-23T08:59:41;14.90;1.00
20174;DHT22;10246;50.620;7.232;2023-03-23T09:02:10;14.90;1.00
20174;DHT22;10246;50.620;7.232;2023-03-23T09:04:38;15.00;1.00
20174;DHT22;10246;50.620;7.232;2023-03-23T09:07:08;15.00;1.00
20174;DHT22;10246;50.620;7.232;2023-03-23T09:09:34;15.10;1.00
20174;DHT22;10246;50.620;7.232;2023-03-23T09:12:01;15.10;1.00
20174;DHT22;10246;50.620;7.232;2023-03-23T09:14:28;15.10;1.00
20174;DHT22;10246;50.620;7.232;2023-03-23T09:16:55;15.20;1.00
20174;DHT22;10246;50.620;7.232;2023-03-23T09:19:24;15.20;1.00
20174;DHT22;10246;50.620;7.232;2023-03-23T09:21:50;15.20;1.00
20174;DHT22;10246;50.620;7.232;2023-03-23T09:24:17;15.20;1.00
20174;DHT22;10246;50.620;7.232;2023-03-23T09:26:44;15.20;1.00
20174;DHT22;10246;50.620;7.232;2023-03-23T09:29:11;15.20;1.00
20174;DHT22;10246;50.620;7.232;2023-03-23T09:31:38;15.20;1.00
20174;DHT22;10246;50.620;7.232;2023-03-23T09:34:05;15.10;1.00
20174;DHT22;10246;50.620;7.232;2023-03-23T09:36:36;15.20;1.00
20174;DHT22;10246;50.620;7.232;2023-03-23T09:39:04;15.20;1.00
20174;DHT22;10246;50.620;7.232;2023-03-23T09:41:51;15.20;1.00
20174;DHT22;10246;50.620;7.232;2023-03-23T09:44:27;15.20;1.00
20174;DHT22;10246;50.620;7.232;2023-03-23T09:46:59;15.30;1.00
20174;DHT22;10246;50.620;7.232;2023-03-23T09:49:32;15.30;1.00
20174;DHT22;10246;50.620;7.232;2023-03-23T09:52:05;15.30;1.00
20174;DHT22;10246;50.620;7.232;2023-03-23T09:54:38;15.30;1.00
20174;DHT22;10246;50.620;7.232;2023-03-23T09:57:14;15.30;1.00
20174;DHT22;10246;50.620;7.232;2023-03-23T09:59:47;15.40;1.00
20174;DHT22;10246;50.620;7.232;2023-03-23T10:02:16;15.40;1.00
20174;DHT22;10246;50.620;7.232;2023-03-23T10:04:45;15.50;1.00
20174;DHT22;10246;50.620;7.232;2023-03-23T10:07:16;15.40;1.00
20174;DHT22;10246;50.620;7.232;2023-03-23T10:09:44;15.50;1.00
20174;DHT22;10246;50.620;7.232;2023-03-23T10:12:21;15.60;1.00
20174;DHT22;10246;50.620;7.232;2023-03-23T10:15:04;15.70;1.00
20174;DHT22;10246;50.620;7.232;2023-03-23T10:17:42;15.70;1.00
20174;DHT22;10246;50.620;7.232;2023-03-23T10:20:31;15.70;1.00
20174;DHT22;10246;50.620;7.232;2023-03-23T10:23:09;15.70;1.00
20174;DHT22;10246;50.620;7.232;2023-03-23T10:25:42;15.70;1.00
20174;DHT22;10246;50.620;7.232;2023-03-23T10:28:12;15.70;1.00
20174;DHT22;10246;50.620;7.232;2023-03-23T10:30:42;15.70;1.00
20174;DHT22;10246;50.620;7.232;2023-03-23T10:33:15;15.70;1.00
20174;DHT22;10246;50.620;7.232;2023-03-23T10:35:46;15.70;1.00
20174;DHT22;10246;50.620;7.232;2023-03-23T10:38:17;15.80;1.00
20174;DHT22;10246;50.620;7.232;2023-03-23T10:40:49;15.80;1.00
20174;DHT22;10246;50.620;7.232;2023-03-23T10:43:18;15.90;1.00
20174;DHT22;10246;50.620;7.232;2023-03-23T10:45:49;16.00;1.00
20174;DHT22;10246;50.620;7.232;2023-03-23T10:48:28;16.10;1.00
20174;DHT22;10246;50.620;7.232;2023-03-23T10:50:59;16.10;1.00
20174;DHT22;10246;50.620;7.232;2023-03-23T10:53:32;16.10;1.00
20174;DHT22;10246;50.620;7.232;2023-03-23T10:55:59;16.20;1.00
20174;DHT22;10246;50.620;7.232;2023-03-23T10:58:27;16.10;1.00
20174;DHT22;10246;50.620;7.232;2023-03-23T11:00:56;16.20;1.00
20174;DHT22;10246;50.620;7.232;2023-03-23T11:03:37;16.00;1.00
20174;DHT22;10246;50.620;7.232;2023-03-23T11:06:06;15.90;1.00
20174;DHT22;10246;50.620;7.232;2023-03-23T11:08:46;15.90;1.00
20174;DHT22;10246;50.620;7.232;2023-03-23T11:11:16;15.90;1.00
20174;DHT22;10246;50.620;7.232;2023-03-23T11:13:45;15.90;1.00
20174;DHT22;10246;50.620;7.232;2023-03-23T11:16:23;15.80;1.00
20174;DHT22;10246;50.620;7.232;2023-03-23T11:18:50;15.80;1.00
20174;DHT22;10246;50.620;7.232;2023-03-23T11:21:19;15.80;1.00
20174;DHT22;10246;50.620;7.232;2023-03-23T11:23:50;15.80;1.00
20174;DHT22;10246;50.620;7.232;2023-03-23T11:26:20;15.80;1.00
20174;DHT22;10246;50.620;7.232;2023-03-23T11:28:52;15.90;1.00
20174;DHT22;10246;50.620;7.232;2023-03-23T11:31:21;16.00;1.00
20174;DHT22;10246;50.620;7.232;2023-03-23T11:33:53;16.00;1.00
20174;DHT22;10246;50.620;7.232;2023-03-23T11:36:21;15.90;1.00
20174;DHT22;10246;50.620;7.232;2023-03-23T11:38:56;16.00;1.00
20174;DHT22;10246;50.620;7.232;2023-03-23T11:41:30;16.10;1.00
20174;DHT22;10246;50.620;7.232;2023-03-23T11:44:04;16.10;1.00
20174;DHT22;10246;50.620;7.232;2023-03-23T11:46:40;16.10;1.00
20174;DHT22;10246;50.620;7.232;2023-03-23T11:49:10;16.20;1.00
20174;DHT22;10246;50.620;7.232;2023-03-23T11:51:44;16.20;1.00
20174;DHT22;10246;50.620;7.232;2023-03-23T11:54:16;16.20;1.00
20174;DHT22;10246;50.620;7.232;2023-03-23T11:56:46;16.30;1.00
20174;DHT22;10246;50.620;7.232;2023-03-23T11:59:16;16.40;1.00
20174;DHT22;10246;50.620;7.232;2023-03-23T12:01:48;16.50;1.00
20174;DHT22;10246;50.620;7.232;2023-03-23T12:04:40;16.50;1.00
20174;DHT22;10246;50.620;7.232;2023-03-23T12:07:28;16.40;1.00
20174;DHT22;10246;50.620;7.232;2023-03-23T12:10:08;16.30;1.00
20174;DHT22;10246;50.620;7.232;2023-03-23T12:12:42;16.30;1.00
20174;DHT22;10246;50.620;7.232;2023-03-23T12:15:19;16.30;1.00
20174;DHT22;10246;50.620;7.232;2023-03-23T12:17:54;16.40;1.00
20174;DHT22;10246;50.620;7.232;2023-03-23T12:20:32;16.40;1.00
20174;DHT22;10246;50.620;7.232;2023-03-23T12:23:08;16.50;1.00
20174;DHT22;10246;50.620;7.232;2023-03-23T12:25:55;16.40;1.00
20174;DHT22;10246;50.620;7.232;2023-03-23T12:28:32;16.40;1.00
20174;DHT22;10246;50.620;7.232;2023-03-23T12:31:07;16.50;1.00
20174;DHT22;10246;50.620;7.232;2023-03-23T12:33:50;16.50;1.00
20174;DHT22;10246;50.620;7.232;2023-03-23T12:36:29;16.40;1.00
20174;DHT22;10246;50.620;7.232;2023-03-23T12:41:50;16.40;1.00
20174;DHT22;10246;50.620;7.232;2023-03-23T12:44:22;16.50;1.00
20174;DHT22;10246;50.620;7.232;2023-03-23T12:47:04;16.50;1.00
20174;DHT22;10246;50.620;7.232;2023-03-23T12:49:36;16.50;1.00
20174;DHT22;10246;50.620;7.232;2023-03-23T12:52:13;16.70;1.00
20174;DHT22;10246;50.620;7.232;2023-03-23T12:54:45;16.70;1.00
20174;DHT22;10246;50.620;7.232;2023-03-23T12:57:23;16.70;1.00
20174;DHT22;10246;50.620;7.232;2023-03-23T12:59:55;16.60;1.00
20174;DHT22;10246;50.620;7.232;2023-03-23T13:02:28;16.60;1.00
20174;DHT22;10246;50.620;7.232;2023-03-23T13:05:00;16.60;1.00
20174;DHT22;10246;50.620;7.232;2023-03-23T13:07:32;16.60;1.00
20174;DHT22;10246;50.620;7.232;2023-03-23T13:10:03;16.70;1.00
20174;DHT22;10246;50.620;7.232;2023-03-23T13:12:34;16.60;1.00
20174;DHT22;10246;50.620;7.232;2023-03-23T13:15:15;16.60;1.00
20174;DHT22;10246;50.620;7.232;2023-03-23T13:17:54;16.60;1.00
20174;DHT22;10246;50.620;7.232;2023-03-23T13:20:38;16.60;1.00
20174;DHT22;10246;50.620;7.232;2023-03-23T13:23:13;16.60;1.00
20174;DHT22;10246;50.620;7.232;2023-03-23T13:25:49;16.60;1.00
20174;DHT22;10246;50.620;7.232;2023-03-23T13:28:20;16.70;1.00
20174;DHT22;10246;50.620;7.232;2023-03-23T13:31:01;16.70;1.00
20174;DHT22;10246;50.620;7.232;2023-03-23T13:33:31;16.70;1.00
20174;DHT22;10246;50.620;7.232;2023-03-23T13:36:05;16.60;1.00
20174;DHT22;10246;50.620;7.232;2023-03-23T13:38:35;16.60;1.00
20174;DHT22;10246;50.620;7.232;2023-03-23T13:41:14;16.70;1.00
20174;DHT22;10246;50.620;7.232;2023-03-23T13:43:44;16.80;1.00
20174;DHT22;10246;50.620;7.232;2023-03-23T13:46:23;16.80;1.00
20174;DHT22;10246;50.620;7.232;2023-03-23T13:49:04;16.80;1.00
20174;DHT22;10246;50.620;7.232;2023-03-23T13:51:46;16.80;1.00
20174;DHT22;10246;50.620;7.232;2023-03-23T13:54:23;16.70;1.00
20174;DHT22;10246;50.620;7.232;2023-03-23T13:56:54;16.70;1.00
20174;DHT22;10246;50.620;7.232;2023-03-23T13:59:34;16.70;1.00
20174;DHT22;10246;50.620;7.232;2023-03-23T14:02:27;16.70;1.00
20174;DHT22;10246;50.620;7.232;2023-03-23T14:04:56;16.70;1.00
20174;DHT22;10246;50.620;7.232;2023-03-23T14:07:23;16.70;1.00
20174;DHT22;10246;50.620;7.232;2023-03-23T14:09:51;16.80;1.00
20174;DHT22;10246;50.620;7.232;2023-03-23T14:12:20;16.90;1.00
20174;DHT22;10246;50.620;7.232;2023-03-23T14:14:51;16.90;1.00
20174;DHT22;10246;50.620;7.232;2023-03-23T14:17:25;16.90;1.00
20174;DHT22;10246;50.620;7.232;2023-03-23T14:19:54;16.90;1.00
20174;DHT22;10246;50.620;7.232;2023-03-23T14:22:24;16.90;1.00
20174;DHT22;10246;50.620;7.232;2023-03-23T14:24:53;16.90;1.00
20174;DHT22;10246;50.620;7.232;2023-03-23T14:27:26;16.90;1.00
20174;DHT22;10246;50.620;7.232;2023-03-23T14:30:06;16.90;1.00
20174;DHT22;10246;50.620;7.232;2023-03-23T14:32:34;16.90;1.00
20174;DHT22;10246;50.620;7.232;2023-03-23T14:35:08;16.80;1.00
20174;DHT22;10246;50.620;7.232;2023-03-23T14:37:39;16.80;1.00
20174;DHT22;10246;50.620;7.232;2023-03-23T14:40:13;16.80;1.00
20174;DHT22;10246;50.620;7.232;2023-03-23T14:42:41;16.90;1.00
20174;DHT22;10246;50.620;7.232;2023-03-23T14:45:14;17.00;1.00
20174;DHT22;10246;50.620;7.232;2023-03-23T14:47:44;17.00;1.00
20174;DHT22;10246;50.620;7.232;2023-03-23T14:50:28;17.10;1.00
20174;DHT22;10246;50.620;7.232;2023-03-23T14:53:02;17.10;1.00
20174;DHT22;10246;50.620;7.232;2023-03-23T14:55:30;17.10;1.00
20174;DHT22;10246;50.620;7.232;2023-03-23T14:58:06;17.10;1.00
20174;DHT22;10246;50.620;7.232;2023-03-23T15:00:39;17.20;1.00
20174;DHT22;10246;50.620;7.232;2023-03-23T15:03:12;17.20;1.00
20174;DHT22;10246;50.620;7.232;2023-03-23T15:05:44;17.20;1.00
20174;DHT22;10246;50.620;7.232;2023-03-23T15:08:14;17.30;1.00
20174;DHT22;10246;50.620;7.232;2023-03-23T15:10:42;17.40;1.00
20174;DHT22;10246;50.620;7.232;2023-03-23T15:13:17;17.40;1.00
20174;DHT22;10246;50.620;7.232;2023-03-23T15:15:46;17.30;1.00
20174;DHT22;10246;50.620;7.232;2023-03-23T15:18:30;17.40;1.00
20174;DHT22;10246;50.620;7.232;2023-03-23T15:20:57;17.40;1.00
20174;DHT22;10246;50.620;7.232;2023-03-23T15:23:28;17.40;1.00
20174;DHT22;10246;50.620;7.232;2023-03-23T15:25:56;17.30;1.00
20174;DHT22;10246;50.620;7.232;2023-03-23T15:28:29;17.30;1.00
20174;DHT22;10246;50.620;7.232;2023-03-23T15:31:02;17.40;1.00
20174;DHT22;10246;50.620;7.232;2023-03-23T15:33:34;17.40;1.00
20174;DHT22;10246;50.620;7.232;2023-03-23T15:36:06;17.40;1.00
20174;DHT22;10246;50.620;7.232;2023-03-23T15:38:34;17.30;1.00
20174;DHT22;10246;50.620;7.232;2023-03-23T15:41:04;17.30;1.00
20174;DHT22;10246;50.620;7.232;2023-03-23T15:43:33;17.40;1.00
20174;DHT22;10246;50.620;7.232;2023-03-23T15:46:03;17.30;1.00
20174;DHT22;10246;50.620;7.232;2023-03-23T15:48:33;17.10;1.00
20174;DHT22;10246;50.620;7.232;2023-03-23T15:51:12;17.10;1.00
20174;DHT22;10246;50.620;7.232;2023-03-23T15:53:40;17.00;1.00
20174;DHT22;10246;50.620;7.232;2023-03-23T15:56:09;17.00;1.00
20174;DHT22;10246;50.620;7.232;2023-03-23T15:58:38;17.00;1.00
20174;DHT22;10246;50.620;7.232;2023-03-23T16:01:11;16.90;1.00
20174;DHT22;10246;50.620;7.232;2023-03-23T16:03:40;16.80;1.00
20174;DHT22;10246;50.620;7.232;2023-03-23T16:06:10;16.80;1.00
20174;DHT22;10246;50.620;7.232;2023-03-23T16:08:44;16.80;1.00
20174;DHT22;10246;50.620;7.232;2023-03-23T16:11:12;16.90;1.00
20174;DHT22;10246;50.620;7.232;2023-03-23T16:13:40;16.80;1.00